createdAt,value
2023-02-25T00:02:27.907Z,99451.91
2023-02-25T00:05:31.797Z,99443.50
2023-02-25T00:08:34.669Z,99457.31
2023-02-25T00:11:36.660Z,99448.84
2023-02-25T00:14:38.071Z,99460.47
2023-02-25T00:17:39.952Z,99464.00
2023-02-25T00:20:41.413Z,99461.41
2023-02-25T00:23:45.467Z,99452.97
2023-02-25T00:26:46.918Z,99465.38
2023-02-25T00:29:52.993Z,99456.63
2023-02-25T00:32:54.456Z,99461.63
2023-02-25T00:35:55.857Z,99465.38
2023-02-25T00:38:57.656Z,99463.53
2023-02-25T00:41:59.068Z,99461.94
2023-02-25T00:45:00.451Z,99470.13
2023-02-25T00:48:01.894Z,99472.97
2023-02-25T00:51:14.604Z,99473.31
2023-02-25T00:54:16.078Z,99480.47
2023-02-25T00:57:17.516Z,99482.38
2023-02-25T01:00:19.266Z,99485.28
2023-02-25T01:03:20.646Z,99480.31
2023-02-25T01:06:23.776Z,99488.28
2023-02-25T01:09:25.516Z,99490.13
2023-02-25T01:12:26.925Z,99493.69
2023-02-25T01:15:30.710Z,99500.81
2023-02-25T01:18:34.493Z,99493.81
2023-02-25T01:21:40.056Z,99496.38
2023-02-25T01:24:41.595Z,99498.13
2023-02-25T01:27:43.678Z,99493.81
2023-02-25T01:30:45.600Z,99497.53
2023-02-25T01:33:47.043Z,99498.44
2023-02-25T01:36:48.794Z,99495.97
2023-02-25T01:39:50.266Z,99498.56
2023-02-25T01:42:52.718Z,99498.44
2023-02-25T01:45:56.473Z,99493.34
2023-02-25T01:48:58.207Z,99491.66
2023-02-25T01:52:07.802Z,99493.56
2023-02-25T01:55:10.358Z,99493.75
2023-02-25T01:58:12.491Z,99476.41
2023-02-25T02:01:17.643Z,99465.25
2023-02-25T02:04:22.053Z,99471.41
2023-02-25T02:07:24.826Z,99481.06
2023-02-25T02:10:26.392Z,99475.78
2023-02-25T02:13:31.595Z,99481.88
2023-02-25T02:17:10.660Z,99473.13
2023-02-25T02:20:20.677Z,99485.13
2023-02-25T02:23:59.049Z,99479.75
2023-02-25T02:27:11.173Z,99481.25
2023-02-25T02:30:32.812Z,99493.25
2023-02-25T02:33:52.042Z,99490.78
2023-02-25T02:37:05.190Z,99501.19
2023-02-25T02:40:27.698Z,99499.00
2023-02-25T02:43:37.403Z,99499.88
2023-02-25T02:46:45.218Z,99513.31
2023-02-25T02:49:53.724Z,99518.47
2023-02-25T02:52:59.553Z,99514.88
2023-02-25T02:56:04.879Z,99523.16
2023-02-25T02:59:20.847Z,99527.50
2023-02-25T03:02:37.815Z,99529.19
2023-02-25T03:05:41.543Z,99525.44
2023-02-25T03:08:48.016Z,99528.78
2023-02-25T03:11:49.476Z,99529.56
2023-02-25T03:14:52.806Z,99528.22
2023-02-25T03:17:58.980Z,99531.97
2023-02-25T03:21:03.599Z,99536.47
2023-02-25T03:24:08.806Z,99530.63
2023-02-25T03:27:34.225Z,99534.28
2023-02-25T03:30:48.573Z,99534.72
2023-02-25T03:34:03.202Z,99530.56
2023-02-25T03:37:32.309Z,99529.44
2023-02-25T03:40:35.146Z,99538.28
2023-02-25T03:43:44.103Z,99546.75
2023-02-25T03:46:47.148Z,99550.34
2023-02-25T03:50:05.855Z,99542.69
2023-02-25T03:53:07.316Z,99555.16
2023-02-25T03:56:24.206Z,99550.63
2023-02-25T03:59:27.901Z,99554.28
2023-02-25T04:02:33.573Z,99561.22
2023-02-25T04:05:36.080Z,99560.50
2023-02-25T04:08:37.980Z,99559.50
2023-02-25T04:11:39.386Z,99567.97
2023-02-25T04:14:41.311Z,99570.56
2023-02-25T04:17:45.096Z,99580.47
2023-02-25T04:20:46.642Z,99571.81
2023-02-25T04:23:48.036Z,99573.38
2023-02-25T04:26:49.473Z,99574.34
2023-02-25T04:29:50.907Z,99576.75
2023-02-25T04:32:52.428Z,99574.06
2023-02-25T04:35:53.857Z,99574.78
2023-02-25T04:38:56.155Z,99579.09
2023-02-25T04:41:57.649Z,99575.28
2023-02-25T04:44:59.032Z,99571.09
2023-02-25T04:48:00.443Z,99578.25
2023-02-25T04:51:02.371Z,99576.31
2023-02-25T04:54:04.025Z,99565.56
2023-02-25T04:57:06.769Z,99575.56
2023-02-25T05:00:16.123Z,99576.09
2023-02-25T05:03:17.753Z,99573.41
2023-02-25T05:06:19.132Z,99574.72
2023-02-25T05:09:21.220Z,99577.75
2023-02-25T05:12:22.595Z,99572.50
2023-02-25T05:15:25.295Z,99575.19
2023-02-25T05:18:26.830Z,99576.09
2023-02-25T05:21:29.496Z,99582.97
2023-02-25T05:24:31.332Z,99571.59
2023-02-25T05:27:33.412Z,99570.69
2023-02-25T05:30:35.026Z,99568.19
2023-02-25T05:33:37.837Z,99574.31
2023-02-25T05:36:40.343Z,99570.38
2023-02-25T05:39:41.842Z,99579.19
2023-02-25T05:42:43.375Z,99575.75
2023-02-25T05:45:44.808Z,99579.25
2023-02-25T05:48:46.591Z,99576.41
2023-02-25T05:51:49.616Z,99578.91
2023-02-25T05:54:50.989Z,99582.53
2023-02-25T05:57:52.841Z,99589.06
2023-02-25T06:00:54.288Z,99590.88
2023-02-25T06:03:58.391Z,99587.41
2023-02-25T06:06:59.843Z,99582.88
2023-02-25T06:10:01.774Z,99587.03
2023-02-25T06:13:03.186Z,99574.03
2023-02-25T06:16:05.262Z,99570.06
2023-02-25T06:19:07.129Z,99566.56
2023-02-25T06:22:08.514Z,99579.25
2023-02-25T06:25:09.975Z,99577.97
2023-02-25T06:28:11.527Z,99576.19
2023-02-25T06:31:15.912Z,99581.31
2023-02-25T06:34:18.974Z,99585.78
2023-02-25T06:37:20.379Z,99589.97
2023-02-25T06:40:22.038Z,99598.72
2023-02-25T06:43:23.429Z,99602.38
2023-02-25T06:46:26.828Z,99609.34
2023-02-25T06:49:29.584Z,99609.38
2023-02-25T06:52:31.787Z,99617.03
2023-02-25T06:55:33.377Z,99610.00
2023-02-25T06:58:35.606Z,99614.38
2023-02-25T07:01:37.854Z,99614.91
2023-02-25T07:04:40.367Z,99617.75
2023-02-25T07:07:42.638Z,99621.34
2023-02-25T07:10:44.034Z,99630.97
2023-02-25T07:13:49.828Z,99627.44
2023-02-25T07:16:52.118Z,99619.47
2023-02-25T07:19:53.512Z,99623.41
2023-02-25T07:22:54.984Z,99619.06
2023-02-25T07:25:56.362Z,99627.84
2023-02-25T07:28:59.081Z,99633.38
2023-02-25T07:32:00.770Z,99627.16
2023-02-25T07:35:02.596Z,99629.75
2023-02-25T07:38:04.133Z,99629.63
2023-02-25T07:41:08.196Z,99633.84
2023-02-25T07:44:09.700Z,99629.69
2023-02-25T07:47:11.066Z,99631.22
2023-02-25T07:50:13.074Z,99636.13
2023-02-25T07:53:14.649Z,99642.81
2023-02-25T07:56:17.539Z,99635.97
2023-02-25T07:59:19.420Z,99636.59
2023-02-25T08:02:21.785Z,99639.47
2023-02-25T08:05:24.116Z,99659.06
2023-02-25T08:08:25.713Z,99659.22
2023-02-25T08:11:27.505Z,99651.38
2023-02-25T08:14:28.910Z,99652.84
2023-02-25T08:17:34.372Z,99650.41
2023-02-25T08:20:36.358Z,99655.28
2023-02-25T08:23:38.159Z,99646.38
2023-02-25T08:26:39.587Z,99650.44
2023-02-25T08:29:40.959Z,99651.28
2023-02-25T08:32:42.582Z,99646.91
2023-02-25T08:35:45.563Z,99648.53
2023-02-25T08:38:47.348Z,99645.41
2023-02-25T08:41:48.759Z,99651.25
2023-02-25T08:44:50.267Z,99643.44
2023-02-25T08:47:51.692Z,99640.78
2023-02-25T08:50:53.130Z,99641.81
2023-02-25T08:53:54.541Z,99644.16
2023-02-25T08:56:57.159Z,99650.22
2023-02-25T08:59:58.543Z,99636.84
2023-02-25T09:02:59.979Z,99643.44
2023-02-25T09:06:01.370Z,99641.41
2023-02-25T09:09:02.926Z,99650.66
2023-02-25T09:12:05.139Z,99650.41
2023-02-25T09:15:07.435Z,99646.59
2023-02-25T09:18:08.841Z,99643.66
2023-02-25T09:21:12.417Z,99651.50
2023-02-25T09:24:14.481Z,99648.69
2023-02-25T09:27:17.103Z,99644.19
2023-02-25T09:30:18.948Z,99653.22
2023-02-25T09:33:20.533Z,99651.63
2023-02-25T09:36:22.393Z,99648.06
2023-02-25T09:39:23.835Z,99644.66
2023-02-25T09:42:32.874Z,99650.44
2023-02-25T09:45:35.023Z,99652.50
2023-02-25T09:48:59.070Z,99651.72
2023-02-25T09:52:14.035Z,99654.63
2023-02-25T09:55:35.812Z,99651.25
2023-02-25T09:58:43.338Z,99645.41
2023-02-25T10:02:16.272Z,99646.09
2023-02-25T10:05:39.162Z,99648.75
2023-02-25T10:08:56.973Z,99645.06
2023-02-25T10:12:13.406Z,99641.84
2023-02-25T10:16:01.675Z,99644.66
2023-02-25T10:19:40.852Z,99649.34
2023-02-25T10:23:25.417Z,99647.28
2023-02-25T10:26:33.384Z,99645.19
2023-02-25T10:29:46.396Z,99653.75
2023-02-25T10:32:48.953Z,99656.94
2023-02-25T10:35:57.479Z,99652.19
2023-02-25T10:38:59.082Z,99648.38
2023-02-25T10:42:00.627Z,99651.88
2023-02-25T10:45:14.994Z,99648.44
2023-02-25T10:48:21.551Z,99654.72
2023-02-25T10:51:23.839Z,99661.19
2023-02-25T10:54:26.284Z,99661.91
2023-02-25T10:57:40.084Z,99651.47
2023-02-25T11:00:56.224Z,99643.41
2023-02-25T11:04:02.629Z,99646.47
2023-02-25T11:07:31.918Z,99650.03
2023-02-25T11:10:34.975Z,99643.09
2023-02-25T11:13:37.147Z,99652.84
2023-02-25T11:16:42.041Z,99646.47
2023-02-25T11:20:01.432Z,99638.94
2023-02-25T11:23:03.001Z,99651.50
2023-02-25T11:26:06.668Z,99647.28
2023-02-25T11:29:20.325Z,99653.72
2023-02-25T11:32:22.795Z,99654.41
2023-02-25T11:35:31.788Z,99645.00
2023-02-25T11:38:36.743Z,99649.63
2023-02-25T11:41:38.183Z,99646.63
2023-02-25T11:44:45.322Z,99662.63
2023-02-25T11:47:49.327Z,99664.81
2023-02-25T11:50:57.628Z,99641.22
2023-02-25T11:54:20.880Z,99646.16
2023-02-25T11:57:58.533Z,99635.91
2023-02-25T12:01:27.806Z,99639.22
2023-02-25T12:04:47.960Z,99643.72
2023-02-25T12:08:13.843Z,99646.91
2023-02-25T12:11:46.183Z,99637.28
2023-02-25T12:15:09.202Z,99627.25
2023-02-25T12:18:36.226Z,99636.66
2023-02-25T12:22:12.530Z,99630.44
2023-02-25T12:25:26.870Z,99618.81
2023-02-25T12:28:49.742Z,99623.84
2023-02-25T12:32:16.431Z,99623.63
2023-02-25T12:35:27.569Z,99605.66
2023-02-25T12:38:47.468Z,99611.50
2023-02-25T12:42:21.140Z,99612.81
2023-02-25T12:45:40.785Z,99601.09
2023-02-25T12:49:09.147Z,99591.69
2023-02-25T12:52:25.064Z,99592.44
2023-02-25T12:55:57.420Z,99593.25
2023-02-25T12:59:13.314Z,99591.16
2023-02-25T13:02:42.625Z,99585.00
2023-02-25T13:06:12.179Z,99588.59
2023-02-25T13:09:39.098Z,99589.72
2023-02-25T13:12:57.888Z,99591.66
2023-02-25T13:16:21.028Z,99594.28
2023-02-25T13:20:00.426Z,99584.75
2023-02-25T13:23:26.703Z,99584.88
2023-02-25T13:26:40.927Z,99586.47
2023-02-25T13:30:12.380Z,99588.31
2023-02-25T13:33:35.115Z,99585.50
2023-02-25T13:36:48.786Z,99584.91
2023-02-25T13:40:05.849Z,99588.28
2023-02-25T13:43:19.970Z,99579.72
2023-02-25T13:46:39.500Z,99576.97
2023-02-25T13:49:59.598Z,99570.13
2023-02-25T13:53:20.441Z,99572.53
2023-02-25T13:57:15.329Z,99573.63
2023-02-25T14:00:16.681Z,99567.81
2023-02-25T14:03:55.808Z,99565.41
2023-02-25T14:07:29.761Z,99560.84
2023-02-25T14:10:53.081Z,99567.47
2023-02-25T14:14:26.796Z,99592.72
2023-02-25T14:17:48.596Z,99596.97
2023-02-25T14:21:22.710Z,99616.22
2023-02-25T14:24:49.258Z,99609.06
2023-02-25T14:28:03.050Z,99610.28
2023-02-25T14:31:20.059Z,99613.31
2023-02-25T14:34:55.973Z,99617.22
2023-02-25T14:38:13.056Z,99614.47
2023-02-25T14:41:23.187Z,99606.41
2023-02-25T14:44:35.281Z,99615.94
2023-02-25T14:48:01.962Z,99615.13
2023-02-25T14:51:12.326Z,99604.78
2023-02-25T14:54:51.088Z,99613.56
2023-02-25T14:58:17.284Z,99619.06
2023-02-25T15:02:02.022Z,99616.06
2023-02-25T15:05:54.575Z,99630.47
2023-02-25T15:09:38.519Z,99627.66
2023-02-25T15:12:59.599Z,99627.66
2023-02-25T15:16:27.542Z,99628.53
2023-02-25T15:20:00.839Z,99627.25
2023-02-25T15:23:07.258Z,99624.63
2023-02-25T15:26:39.201Z,99626.63
2023-02-25T15:29:40.583Z,99619.25
2023-02-25T15:33:13.411Z,99621.06
2023-02-25T15:36:14.791Z,99625.81
2023-02-25T15:39:53.580Z,99630.19
2023-02-25T15:42:57.453Z,99636.28
2023-02-25T15:46:07.971Z,99633.03
2023-02-25T15:49:33.692Z,99639.72
2023-02-25T15:52:53.829Z,99642.69
2023-02-25T15:56:16.572Z,99643.00
2023-02-25T15:59:41.054Z,99651.03
2023-02-25T16:02:43.636Z,99668.78
2023-02-25T16:05:46.624Z,99665.69
2023-02-25T16:09:00.391Z,99679.88
2023-02-25T16:12:07.019Z,99696.16
2023-02-25T16:15:15.507Z,99705.44
2023-02-25T16:18:21.299Z,99714.25
2023-02-25T16:21:46.420Z,99730.31
2023-02-25T16:24:51.690Z,99753.53
2023-02-25T16:28:04.459Z,99747.63
2023-02-25T16:31:21.378Z,99763.34
2023-02-25T16:34:55.021Z,99768.66
2023-02-25T16:38:14.374Z,99775.66
2023-02-25T16:41:16.019Z,99773.69
2023-02-25T16:44:21.506Z,99786.09
2023-02-25T16:47:29.646Z,99784.25
2023-02-25T16:50:33.835Z,99792.44
2023-02-25T16:53:35.969Z,99789.28
2023-02-25T16:56:37.711Z,99791.94
2023-02-25T16:59:39.112Z,99796.13
2023-02-25T17:02:48.299Z,99796.16
2023-02-25T17:06:06.448Z,99801.31
2023-02-25T17:09:22.482Z,99813.50
2023-02-25T17:12:40.780Z,99821.97
2023-02-25T17:15:42.408Z,99818.78
2023-02-25T17:18:49.579Z,99822.34
2023-02-25T17:21:57.101Z,99824.06
2023-02-25T17:25:00.100Z,99837.78
2023-02-25T17:28:01.776Z,99836.66
2023-02-25T17:31:12.790Z,99843.97
2023-02-25T17:34:18.761Z,99838.88
2023-02-25T17:37:22.004Z,99838.22
2023-02-25T17:40:26.899Z,99850.50
2023-02-25T17:43:36.074Z,99849.63
2023-02-25T17:46:42.179Z,99859.53
2023-02-25T17:49:43.574Z,99866.63
2023-02-25T17:52:47.692Z,99868.47
2023-02-25T17:55:49.050Z,99867.47
2023-02-25T17:58:52.279Z,99876.34
2023-02-25T18:01:56.725Z,99887.72
2023-02-25T18:05:22.718Z,99899.84
2023-02-25T18:08:25.646Z,99898.25
2023-02-25T18:11:39.178Z,99908.75
2023-02-25T18:14:43.664Z,99908.84
2023-02-25T18:17:50.152Z,99913.91
2023-02-25T18:20:57.664Z,99915.41
2023-02-25T18:24:00.134Z,99922.53
2023-02-25T18:27:04.467Z,99929.53
2023-02-25T18:30:12.055Z,99925.03
2023-02-25T18:33:13.438Z,99930.84
2023-02-25T18:36:27.065Z,99930.78
2023-02-25T18:39:28.727Z,99933.47
2023-02-25T18:42:30.106Z,99939.56
2023-02-25T18:45:33.172Z,99948.22
2023-02-25T18:48:35.378Z,99940.28
2023-02-25T18:51:38.490Z,99942.25
2023-02-25T18:54:41.556Z,99959.47
2023-02-25T18:57:43.024Z,99957.66
2023-02-25T19:00:48.068Z,99962.06
2023-02-25T19:03:51.014Z,99965.66
2023-02-25T19:06:52.421Z,99970.94
2023-02-25T19:09:55.717Z,99970.09
2023-02-25T19:13:07.569Z,99984.91
2023-02-25T19:16:09.491Z,99990.06
2023-02-25T19:19:10.920Z,100002.38
2023-02-25T19:22:16.074Z,100002.53
2023-02-25T19:25:22.973Z,100008.53
2023-02-25T19:28:24.486Z,100013.03
2023-02-25T19:31:25.914Z,100018.34
2023-02-25T19:34:27.322Z,100016.72
2023-02-25T19:37:32.015Z,100030.94
2023-02-25T19:40:34.055Z,100032.78
2023-02-25T19:43:35.556Z,100036.25
2023-02-25T19:46:37.050Z,100050.13
2023-02-25T19:49:38.532Z,100033.66
2023-02-25T19:52:40.137Z,100051.84
2023-02-25T19:55:43.669Z,100048.44
2023-02-25T19:58:45.241Z,100059.88
2023-02-25T20:01:47.190Z,100062.56
2023-02-25T20:04:48.860Z,100071.25
2023-02-25T20:07:50.731Z,100074.75
2023-02-25T20:10:52.185Z,100071.22
2023-02-25T20:13:53.616Z,100081.66
2023-02-25T20:16:56.958Z,100098.94
2023-02-25T20:19:58.347Z,100101.53
2023-02-25T20:22:59.800Z,100101.59
2023-02-25T20:26:09.377Z,100105.13
2023-02-25T20:29:10.799Z,100093.06
2023-02-25T20:32:12.415Z,100104.31
2023-02-25T20:35:18.176Z,100115.72
2023-02-25T20:38:34.641Z,100111.38
2023-02-25T20:41:36.307Z,100114.84
2023-02-25T20:44:38.523Z,100117.50
2023-02-25T20:47:40.178Z,100120.16
2023-02-25T20:50:42.017Z,100127.97
2023-02-25T20:53:43.605Z,100120.22
2023-02-25T20:56:46.050Z,100126.31
2023-02-25T20:59:48.295Z,100120.25
2023-02-25T21:02:49.772Z,100128.00
2023-02-25T21:05:51.269Z,100138.38
2023-02-25T21:08:53.637Z,100141.00
2023-02-25T21:11:55.203Z,100144.50
2023-02-25T21:14:56.661Z,100143.63
2023-02-25T21:17:58.198Z,100144.47
2023-02-25T21:21:02.723Z,100141.03
2023-02-25T21:24:09.729Z,100148.00
2023-02-25T21:27:11.919Z,100150.59
2023-02-25T21:30:13.707Z,100149.75
2023-02-25T21:33:15.919Z,100148.03
2023-02-25T21:36:17.392Z,100145.47
2023-02-25T21:39:18.857Z,100149.88
2023-02-25T21:42:20.269Z,100147.31
2023-02-25T21:45:21.704Z,100151.63
2023-02-25T21:48:24.770Z,100158.59
2023-02-25T21:51:28.191Z,100162.06
2023-02-25T21:54:29.587Z,100162.06
2023-02-25T21:57:30.996Z,100169.00
2023-02-25T22:00:32.522Z,100167.25
2023-02-25T22:03:33.976Z,100159.50
2023-02-25T22:06:35.933Z,100160.31
2023-02-25T22:09:37.312Z,100168.13
2023-02-25T22:12:38.723Z,100168.97
2023-02-25T22:15:40.178Z,100163.75
2023-02-25T22:18:41.973Z,100168.06
2023-02-25T22:21:43.378Z,100165.50
2023-02-25T22:24:44.848Z,100173.25
2023-02-25T22:27:46.350Z,100175.88
2023-02-25T22:30:47.829Z,100174.16
2023-02-25T22:33:49.805Z,100177.63
2023-02-25T22:36:51.267Z,100173.31
2023-02-25T22:39:52.635Z,100183.72
2023-02-25T22:42:54.073Z,100172.44
2023-02-25T22:46:38.102Z,100177.66
2023-02-25T22:49:39.604Z,100181.13
2023-02-25T22:52:41.079Z,100183.72
2023-02-25T22:55:43.483Z,100182.81
2023-02-25T22:58:45.094Z,100188.03
2023-02-25T23:01:46.560Z,100192.34
2023-02-25T23:04:47.985Z,100192.34
2023-02-25T23:07:49.738Z,100196.69
2023-02-25T23:10:51.449Z,100200.16
2023-02-25T23:13:58.159Z,100195.81
2023-02-25T23:16:59.552Z,100201.88
2023-02-25T23:20:01.511Z,100199.31
2023-02-25T23:23:04.929Z,100201.03
2023-02-25T23:26:08.251Z,100204.50
2023-02-25T23:29:11.341Z,100202.78
2023-02-25T23:32:12.778Z,100208.78
2023-02-25T23:35:14.312Z,100210.50
2023-02-25T23:38:15.851Z,100207.03
2023-02-25T23:41:17.372Z,100210.47
2023-02-25T23:44:18.810Z,100215.63
2023-02-25T23:47:20.242Z,100212.16
2023-02-25T23:50:21.628Z,100216.44
2023-02-25T23:53:23.414Z,100216.44
2023-02-25T23:56:26.985Z,100221.63
2023-02-25T23:59:28.711Z,100221.66
